createdAt,value
2022-09-27T00:00:07.713Z,11.45
2022-09-27T00:01:07.796Z,11.45
2022-09-27T00:02:07.896Z,11.45
2022-09-27T00:03:07.765Z,11.44
2022-09-27T00:04:07.682Z,11.43
2022-09-27T00:05:07.651Z,11.40
2022-09-27T00:06:07.651Z,11.37
2022-09-27T00:07:07.623Z,11.34
2022-09-27T00:08:07.625Z,11.31
2022-09-27T00:09:07.595Z,11.27
2022-09-27T00:10:07.583Z,11.27
2022-09-27T00:11:07.564Z,11.23
2022-09-27T00:12:07.544Z,11.22
2022-09-27T00:13:07.554Z,11.20
2022-09-27T00:14:07.564Z,11.20
2022-09-27T00:15:07.633Z,11.20
2022-09-27T00:16:07.704Z,11.19
2022-09-27T00:17:07.493Z,11.18
2022-09-27T00:18:07.484Z,11.18
2022-09-27T00:19:07.684Z,11.18
2022-09-27T00:20:07.442Z,11.18
2022-09-27T00:21:07.434Z,11.20
2022-09-27T00:22:07.433Z,11.19
2022-09-27T00:23:07.425Z,11.20
2022-09-27T00:24:07.434Z,11.20
2022-09-27T00:25:07.397Z,11.22
2022-09-27T00:26:07.394Z,11.23
2022-09-27T00:27:07.378Z,11.23
2022-09-27T00:28:07.337Z,11.26
2022-09-27T00:29:07.379Z,11.25
2022-09-27T00:30:07.313Z,11.25
2022-09-27T00:31:07.426Z,11.23
2022-09-27T00:32:08.025Z,11.26
2022-09-27T00:33:07.284Z,11.25
2022-09-27T00:34:07.285Z,11.25
2022-09-27T00:35:07.244Z,11.23
2022-09-27T00:36:07.275Z,11.23
2022-09-27T00:37:07.235Z,11.22
2022-09-27T00:38:07.224Z,11.22
2022-09-27T00:39:07.214Z,11.22
2022-09-27T00:40:07.207Z,11.23
2022-09-27T00:41:07.209Z,11.26
2022-09-27T00:42:07.153Z,11.23
2022-09-27T00:43:07.142Z,11.25
2022-09-27T00:44:07.135Z,11.25
2022-09-27T00:45:07.113Z,11.27
2022-09-27T00:46:07.169Z,11.30
2022-09-27T00:47:07.094Z,11.27
2022-09-27T00:48:07.065Z,11.30
2022-09-27T00:49:07.073Z,11.27
2022-09-27T00:50:07.035Z,11.26
2022-09-27T00:51:07.065Z,11.25
2022-09-27T00:52:07.005Z,11.27
2022-09-27T00:53:07.026Z,11.30
2022-09-27T00:54:07.005Z,11.30
2022-09-27T00:55:06.975Z,11.31
2022-09-27T00:56:06.965Z,11.31
2022-09-27T00:57:06.955Z,11.33
2022-09-27T00:58:06.935Z,11.31
2022-09-27T00:59:06.945Z,11.31
2022-09-27T01:00:06.905Z,11.31
2022-09-27T01:01:06.957Z,11.30
2022-09-27T01:02:06.924Z,11.30
2022-09-27T01:03:06.873Z,11.30
2022-09-27T01:04:06.863Z,11.27
2022-09-27T01:05:06.863Z,11.27
2022-09-27T01:06:06.836Z,11.27
2022-09-27T01:07:06.816Z,11.30
2022-09-27T01:08:06.798Z,11.27
2022-09-27T01:09:06.787Z,11.27
2022-09-27T01:10:06.786Z,11.26
2022-09-27T01:11:06.773Z,11.23
2022-09-27T01:12:06.744Z,11.22
2022-09-27T01:13:06.735Z,11.22
2022-09-27T01:14:06.736Z,11.22
2022-09-27T01:15:06.706Z,11.19
2022-09-27T01:16:06.720Z,11.05
2022-09-27T01:17:06.686Z,11.04
2022-09-27T01:18:06.668Z,11.04
2022-09-27T01:19:06.666Z,11.01
2022-09-27T01:20:06.646Z,11.00
2022-09-27T01:21:06.627Z,10.98
2022-09-27T01:22:06.616Z,10.98
2022-09-27T01:23:06.606Z,11.00
2022-09-27T01:24:06.606Z,11.00
2022-09-27T01:25:06.577Z,11.00
2022-09-27T01:26:06.566Z,11.01
2022-09-27T01:27:06.546Z,11.01
2022-09-27T01:28:06.529Z,11.00
2022-09-27T01:29:06.536Z,11.01
2022-09-27T01:30:06.505Z,11.01
2022-09-27T01:31:06.552Z,11.02
2022-09-27T01:32:06.487Z,11.02
2022-09-27T01:33:06.479Z,11.01
2022-09-27T01:34:06.468Z,10.98
2022-09-27T01:35:06.438Z,10.98
2022-09-27T01:36:06.429Z,10.98
2022-09-27T01:37:06.417Z,10.95
2022-09-27T01:38:06.407Z,10.90
2022-09-27T01:39:06.430Z,10.90
2022-09-27T01:40:06.438Z,10.92
2022-09-27T01:41:06.360Z,10.97
2022-09-27T01:42:07.673Z,10.97
2022-09-27T01:43:06.328Z,10.98
2022-09-27T01:44:06.338Z,10.98
2022-09-27T01:45:06.300Z,10.97
2022-09-27T01:46:06.382Z,10.95
2022-09-27T01:47:06.281Z,10.97
2022-09-27T01:48:06.277Z,10.97
2022-09-27T01:49:07.208Z,10.97
2022-09-27T01:50:06.245Z,11.00
2022-09-27T01:51:06.231Z,11.00
2022-09-27T01:52:06.219Z,10.95
2022-09-27T01:53:06.205Z,10.92
2022-09-27T01:54:06.202Z,10.90
2022-09-27T01:55:06.178Z,10.90
2022-09-27T01:56:06.169Z,10.90
2022-09-27T01:57:06.138Z,10.87
2022-09-27T01:58:06.148Z,10.84
2022-09-27T01:59:06.150Z,10.84
2022-09-27T02:00:06.146Z,10.77
2022-09-27T02:01:06.141Z,10.76
2022-09-27T02:02:06.081Z,10.76
2022-09-27T02:03:06.178Z,10.77
2022-09-27T02:04:06.069Z,10.79
2022-09-27T02:05:06.030Z,10.79
2022-09-27T02:06:06.029Z,10.77
2022-09-27T02:07:06.007Z,10.76
2022-09-27T02:08:05.999Z,10.77
2022-09-27T02:09:05.999Z,10.72
2022-09-27T02:10:05.971Z,10.75
2022-09-27T02:11:05.960Z,10.75
2022-09-27T02:12:05.939Z,10.72
2022-09-27T02:13:05.926Z,10.68
2022-09-27T02:14:05.929Z,10.65
2022-09-27T02:15:05.905Z,10.64
2022-09-27T02:16:05.969Z,10.64
2022-09-27T02:17:05.887Z,10.64
2022-09-27T02:18:05.879Z,10.68
2022-09-27T02:19:05.860Z,10.58
2022-09-27T02:20:05.871Z,10.57
2022-09-27T02:21:05.821Z,10.55
2022-09-27T02:22:05.818Z,10.51
2022-09-27T02:23:05.781Z,10.51
2022-09-27T02:24:05.843Z,10.49
2022-09-27T02:25:05.781Z,10.48
2022-09-27T02:26:05.752Z,10.46
2022-09-27T02:27:05.750Z,10.48
2022-09-27T02:28:05.740Z,10.46
2022-09-27T02:29:05.717Z,10.45
2022-09-27T02:30:05.720Z,10.45
2022-09-27T02:31:05.744Z,10.45
2022-09-27T02:32:05.672Z,10.49
2022-09-27T02:33:05.640Z,10.46
2022-09-27T02:34:05.639Z,10.41
2022-09-27T02:35:05.629Z,10.38
2022-09-27T02:36:05.840Z,10.39
2022-09-27T02:37:05.589Z,10.42
2022-09-27T02:38:05.836Z,10.45
2022-09-27T02:39:05.800Z,10.45
2022-09-27T02:40:05.590Z,10.43
2022-09-27T02:41:05.670Z,10.45
2022-09-27T02:42:05.560Z,10.48
2022-09-27T02:43:05.533Z,10.49
2022-09-27T02:44:05.621Z,10.48
2022-09-27T02:45:05.490Z,10.42
2022-09-27T02:46:05.507Z,10.41
2022-09-27T02:47:05.460Z,10.38
2022-09-27T02:48:05.439Z,10.30
2022-09-27T02:49:05.420Z,10.34
2022-09-27T02:50:05.430Z,10.34
2022-09-27T02:51:05.390Z,10.31
2022-09-27T02:52:05.390Z,10.33
2022-09-27T02:53:05.371Z,10.30
2022-09-27T02:54:05.360Z,10.31
2022-09-27T02:55:05.351Z,10.31
2022-09-27T02:56:05.339Z,10.31
2022-09-27T02:57:05.318Z,10.27
2022-09-27T02:58:05.311Z,10.27
2022-09-27T02:59:05.290Z,10.27
2022-09-27T03:00:05.290Z,10.28
2022-09-27T03:01:05.291Z,10.30
2022-09-27T03:02:08.599Z,10.31
2022-09-27T03:03:06.286Z,10.30
2022-09-27T03:04:05.228Z,10.28
2022-09-27T03:05:05.225Z,10.31
2022-09-27T03:06:05.202Z,10.33
2022-09-27T03:07:05.183Z,10.34
2022-09-27T03:08:05.176Z,10.36
2022-09-27T03:09:05.152Z,10.34
2022-09-27T03:10:05.159Z,10.39
2022-09-27T03:11:05.121Z,10.33
2022-09-27T03:12:05.113Z,10.30
2022-09-27T03:13:05.099Z,10.34
2022-09-27T03:14:09.290Z,10.33
2022-09-27T03:15:05.081Z,10.31
2022-09-27T03:16:05.061Z,10.31
2022-09-27T03:17:05.095Z,10.28
2022-09-27T03:18:05.042Z,10.28
2022-09-27T03:19:05.011Z,10.31
2022-09-27T03:20:05.021Z,10.34
2022-09-27T03:21:04.992Z,10.38
2022-09-27T03:22:04.980Z,10.38
2022-09-27T03:23:04.962Z,10.39
2022-09-27T03:24:04.951Z,10.38
2022-09-27T03:25:04.950Z,10.38
2022-09-27T03:26:04.922Z,10.34
2022-09-27T03:27:04.909Z,10.28
2022-09-27T03:28:04.889Z,10.28
2022-09-27T03:29:04.882Z,10.28
2022-09-27T03:30:04.891Z,10.31
2022-09-27T03:31:04.883Z,10.31
2022-09-27T03:32:04.869Z,10.28
2022-09-27T03:33:04.853Z,10.27
2022-09-27T03:34:04.801Z,10.25
2022-09-27T03:35:04.832Z,10.25
2022-09-27T03:36:04.808Z,10.25
2022-09-27T03:37:04.780Z,10.30
2022-09-27T03:38:04.752Z,10.30
2022-09-27T03:39:04.759Z,10.31
2022-09-27T03:40:04.752Z,10.31
2022-09-27T03:41:04.770Z,10.30
2022-09-27T03:42:04.713Z,10.30
2022-09-27T03:43:04.689Z,10.30
2022-09-27T03:44:04.673Z,10.31
2022-09-27T03:45:04.682Z,10.28
2022-09-27T03:46:04.717Z,10.30
2022-09-27T03:47:04.633Z,10.31
2022-09-27T03:48:04.614Z,10.30
2022-09-27T03:49:04.602Z,10.30
2022-09-27T03:50:04.613Z,10.34
2022-09-27T03:51:04.595Z,10.34
2022-09-27T03:52:04.563Z,10.36
2022-09-27T03:53:04.551Z,10.34
2022-09-27T03:54:04.533Z,10.34
2022-09-27T03:55:04.522Z,10.36
2022-09-27T03:56:04.524Z,10.33
2022-09-27T03:57:04.502Z,10.34
2022-09-27T03:58:04.473Z,10.30
2022-09-27T03:59:04.470Z,10.25
2022-09-27T04:00:04.452Z,10.25
2022-09-27T04:01:04.488Z,10.28
2022-09-27T04:02:04.458Z,10.30
2022-09-27T04:03:04.423Z,10.30
2022-09-27T04:04:08.810Z,10.27
2022-09-27T04:05:05.383Z,10.28
2022-09-27T04:06:04.384Z,10.25
2022-09-27T04:07:04.382Z,10.23
2022-09-27T04:08:04.341Z,10.23
2022-09-27T04:09:04.332Z,10.21
2022-09-27T04:10:04.326Z,10.21
2022-09-27T04:11:04.332Z,10.18
2022-09-27T04:12:04.283Z,10.17
2022-09-27T04:13:04.280Z,10.17
2022-09-27T04:14:04.264Z,10.18
2022-09-27T04:15:04.246Z,10.20
2022-09-27T04:16:04.244Z,10.21
2022-09-27T04:17:04.256Z,10.21
2022-09-27T04:18:04.241Z,10.23
2022-09-27T04:19:04.193Z,10.23
2022-09-27T04:20:04.229Z,10.24
2022-09-27T04:21:04.174Z,10.23
2022-09-27T04:22:04.144Z,10.20
2022-09-27T04:23:04.133Z,10.20
2022-09-27T04:24:04.123Z,10.23
2022-09-27T04:25:04.114Z,10.20
2022-09-27T04:26:04.103Z,10.23
2022-09-27T04:27:04.080Z,10.24
2022-09-27T04:28:04.074Z,10.25
2022-09-27T04:29:04.054Z,10.24
2022-09-27T04:30:04.076Z,10.21
2022-09-27T04:31:04.111Z,10.18
2022-09-27T04:32:04.003Z,10.15
2022-09-27T04:33:03.994Z,10.15
2022-09-27T04:34:03.982Z,10.10
2022-09-27T04:35:03.965Z,10.09
2022-09-27T04:36:03.975Z,10.07
2022-09-27T04:37:03.943Z,10.07
2022-09-27T04:38:03.926Z,10.10
2022-09-27T04:39:03.922Z,10.10
2022-09-27T04:40:03.906Z,10.12
2022-09-27T04:41:03.984Z,10.13
2022-09-27T04:42:03.867Z,10.15
2022-09-27T04:43:03.862Z,10.12
2022-09-27T04:44:03.855Z,10.09
2022-09-27T04:45:03.832Z,10.10
2022-09-27T04:46:03.899Z,10.12
2022-09-27T04:47:03.857Z,10.12
2022-09-27T04:48:03.834Z,10.10
2022-09-27T04:49:03.782Z,10.06
2022-09-27T04:50:03.764Z,10.06
2022-09-27T04:51:03.771Z,10.06
2022-09-27T04:52:03.724Z,10.09
2022-09-27T04:53:03.742Z,10.10
2022-09-27T04:54:03.704Z,10.12
2022-09-27T04:55:03.696Z,10.15
2022-09-27T04:56:03.733Z,10.23
2022-09-27T04:57:03.672Z,10.39
2022-09-27T04:58:03.653Z,10.45
2022-09-27T04:59:08.309Z,10.62
2022-09-27T05:00:04.615Z,10.83
2022-09-27T05:01:03.646Z,11.01
2022-09-27T05:02:03.678Z,10.98
2022-09-27T05:03:03.614Z,11.01
2022-09-27T05:04:03.564Z,11.05
2022-09-27T05:05:03.556Z,10.94
2022-09-27T05:06:03.539Z,10.83
2022-09-27T05:07:03.554Z,10.75
2022-09-27T05:08:03.505Z,10.69
2022-09-27T05:09:03.504Z,10.67
2022-09-27T05:10:03.485Z,10.64
2022-09-27T05:11:03.476Z,10.59
2022-09-27T05:12:03.497Z,10.57
2022-09-27T05:13:03.442Z,10.53
2022-09-27T05:14:03.452Z,10.46
2022-09-27T05:15:03.414Z,10.30
2022-09-27T05:16:03.425Z,10.24
2022-09-27T05:17:03.466Z,10.20
2022-09-27T05:18:03.416Z,10.23
2022-09-27T05:19:03.366Z,10.23
2022-09-27T05:20:03.364Z,10.21
2022-09-27T05:21:03.356Z,10.23
2022-09-27T05:22:03.335Z,10.23
2022-09-27T05:23:03.305Z,10.18
2022-09-27T05:24:03.309Z,10.07
2022-09-27T05:25:03.307Z,10.07
2022-09-27T05:26:03.266Z,10.05
2022-09-27T05:27:03.266Z,10.06
2022-09-27T05:28:03.239Z,10.07
2022-09-27T05:29:03.227Z,10.07
2022-09-27T05:30:03.222Z,10.06
2022-09-27T05:31:03.294Z,10.03
2022-09-27T05:32:03.193Z,10.03
2022-09-27T05:33:03.165Z,10.03
2022-09-27T05:34:03.154Z,10.05
2022-09-27T05:35:03.144Z,10.05
2022-09-27T05:36:03.114Z,9.97
2022-09-27T05:37:03.115Z,9.94
2022-09-27T05:38:03.085Z,9.97
2022-09-27T05:39:03.167Z,9.95
2022-09-27T05:40:16.926Z,9.97
2022-09-27T05:41:04.149Z,10.03
2022-09-27T05:42:03.056Z,10.03
2022-09-27T05:43:03.036Z,10.03
2022-09-27T05:44:03.045Z,10.03
2022-09-27T05:45:03.005Z,10.02
2022-09-27T05:46:03.056Z,9.97
2022-09-27T05:47:02.996Z,9.92
2022-09-27T05:48:02.985Z,9.91
2022-09-27T05:49:02.986Z,9.91
2022-09-27T05:50:02.955Z,9.92
2022-09-27T05:51:02.944Z,9.85
2022-09-27T05:52:02.951Z,9.88
2022-09-27T05:53:02.916Z,9.91
2022-09-27T05:54:02.877Z,9.88
2022-09-27T05:55:02.865Z,9.91
2022-09-27T05:56:02.848Z,9.91
2022-09-27T05:57:02.858Z,9.94
2022-09-27T05:58:02.843Z,9.94
2022-09-27T05:59:02.820Z,9.95
2022-09-27T06:00:02.798Z,9.94
2022-09-27T06:01:02.786Z,9.97
2022-09-27T06:02:02.914Z,9.99
2022-09-27T06:03:02.828Z,10.03
2022-09-27T06:04:02.750Z,10.03
2022-09-27T06:05:02.734Z,10.03
2022-09-27T06:06:02.707Z,10.03
2022-09-27T06:07:02.716Z,10.06
2022-09-27T06:08:02.926Z,10.07
2022-09-27T06:09:02.678Z,10.07
2022-09-27T06:10:02.663Z,10.06
2022-09-27T06:11:02.646Z,10.05
2022-09-27T06:12:02.646Z,10.02
2022-09-27T06:13:02.682Z,9.95
2022-09-27T06:14:02.606Z,9.95
2022-09-27T06:15:02.597Z,9.95
2022-09-27T06:16:02.575Z,9.88
2022-09-27T06:17:02.653Z,9.87
2022-09-27T06:18:02.567Z,9.90
2022-09-27T06:19:02.535Z,9.92
2022-09-27T06:20:02.516Z,9.95
2022-09-27T06:21:02.516Z,9.99
2022-09-27T06:22:02.496Z,9.99
2022-09-27T06:23:02.497Z,9.99
2022-09-27T06:24:02.466Z,10.00
2022-09-27T06:25:02.466Z,10.03
2022-09-27T06:26:02.447Z,10.00
2022-09-27T06:27:02.584Z,9.97
2022-09-27T06:28:02.426Z,9.94
2022-09-27T06:29:02.405Z,9.92
2022-09-27T06:30:02.378Z,9.88
2022-09-27T06:31:02.467Z,9.88
2022-09-27T06:32:02.357Z,9.88
2022-09-27T06:33:02.367Z,9.88
2022-09-27T06:34:02.326Z,9.91
2022-09-27T06:35:02.316Z,9.90
2022-09-27T06:36:02.424Z,9.90
2022-09-27T06:37:02.306Z,9.90
2022-09-27T06:38:02.285Z,9.91
2022-09-27T06:39:02.266Z,9.88
2022-09-27T06:40:02.246Z,9.85
2022-09-27T06:41:02.236Z,9.85
2022-09-27T06:42:02.217Z,9.82
2022-09-27T06:43:02.224Z,9.81
2022-09-27T06:44:02.193Z,9.77
2022-09-27T06:45:02.217Z,9.80
2022-09-27T06:46:02.243Z,9.74
2022-09-27T06:47:02.177Z,9.76
2022-09-27T06:48:02.178Z,9.81
2022-09-27T06:49:02.127Z,9.82
2022-09-27T06:50:02.115Z,9.84
2022-09-27T06:51:02.097Z,9.85
2022-09-27T06:52:02.077Z,9.87
2022-09-27T06:53:02.087Z,9.88
2022-09-27T06:54:02.055Z,9.91
2022-09-27T06:55:02.037Z,9.91
2022-09-27T06:56:02.026Z,9.92
2022-09-27T06:57:02.798Z,9.92
2022-09-27T06:58:01.993Z,9.94
2022-09-27T06:59:02.007Z,9.92
2022-09-27T07:00:01.969Z,9.90
2022-09-27T07:01:01.998Z,9.92
2022-09-27T07:02:02.011Z,9.94
2022-09-27T07:03:01.935Z,10.00
2022-09-27T07:04:01.937Z,10.05
2022-09-27T07:05:01.909Z,10.06
2022-09-27T07:06:01.885Z,10.07
2022-09-27T07:07:01.879Z,10.07
2022-09-27T07:08:01.859Z,10.10
2022-09-27T07:09:01.876Z,10.13
2022-09-27T07:10:04.160Z,10.12
2022-09-27T07:11:01.817Z,10.15
2022-09-27T07:12:01.803Z,10.18
2022-09-27T07:13:01.788Z,10.18
2022-09-27T07:14:01.787Z,10.21
2022-09-27T07:15:01.787Z,10.24
2022-09-27T07:16:01.748Z,10.24
2022-09-27T07:17:01.738Z,10.23
2022-09-27T07:18:01.727Z,10.21
2022-09-27T07:19:01.728Z,10.21
2022-09-27T07:20:02.221Z,10.18
2022-09-27T07:21:01.690Z,10.18
2022-09-27T07:22:01.687Z,10.20
2022-09-27T07:23:01.668Z,10.21
2022-09-27T07:24:01.676Z,10.21
2022-09-27T07:25:01.625Z,10.24
2022-09-27T07:26:01.601Z,10.25
2022-09-27T07:27:01.644Z,10.23
2022-09-27T07:28:02.613Z,10.23
2022-09-27T07:29:01.596Z,10.27
2022-09-27T07:30:01.558Z,10.33
2022-09-27T07:31:01.625Z,10.39
2022-09-27T07:32:01.554Z,10.45
2022-09-27T07:33:01.553Z,10.49
2022-09-27T07:34:01.547Z,10.57
2022-09-27T07:35:01.494Z,10.51
2022-09-27T07:36:01.503Z,10.51
2022-09-27T07:37:01.457Z,10.49
2022-09-27T07:38:01.439Z,10.53
2022-09-27T07:39:01.459Z,10.59
2022-09-27T07:40:01.412Z,10.65
2022-09-27T07:41:01.455Z,10.71
2022-09-27T07:42:01.393Z,10.75
2022-09-27T07:43:01.569Z,10.79
2022-09-27T07:44:01.377Z,10.83
2022-09-27T07:45:01.346Z,10.82
2022-09-27T07:46:01.749Z,10.83
2022-09-27T07:47:01.318Z,10.84
2022-09-27T07:48:01.323Z,10.87
2022-09-27T07:49:01.316Z,10.87
2022-09-27T07:50:01.298Z,10.86
2022-09-27T07:51:01.265Z,10.83
2022-09-27T07:52:01.349Z,10.82
2022-09-27T07:53:01.238Z,10.82
2022-09-27T07:54:05.263Z,10.77
2022-09-27T07:55:02.208Z,10.76
2022-09-27T07:56:01.219Z,10.79
2022-09-27T07:57:01.195Z,10.80
2022-09-27T07:58:01.201Z,10.83
2022-09-27T07:59:01.188Z,10.84
2022-09-27T08:00:01.157Z,10.84
2022-09-27T08:01:01.175Z,10.86
2022-09-27T08:02:01.183Z,10.86
2022-09-27T08:03:01.121Z,10.87
2022-09-27T08:04:01.118Z,10.89
2022-09-27T08:05:01.078Z,10.89
2022-09-27T08:06:01.080Z,10.90
2022-09-27T08:07:01.054Z,10.89
2022-09-27T08:08:01.058Z,10.87
2022-09-27T08:09:01.041Z,10.92
2022-09-27T08:10:01.009Z,10.97
2022-09-27T08:11:00.999Z,11.02
2022-09-27T08:12:00.988Z,11.10
2022-09-27T08:13:00.968Z,11.13
2022-09-27T08:14:00.979Z,11.13
2022-09-27T08:15:00.941Z,11.20
2022-09-27T08:16:00.936Z,11.30
2022-09-27T08:17:00.923Z,11.37
2022-09-27T08:18:00.928Z,11.41
2022-09-27T08:19:00.888Z,11.45
2022-09-27T08:20:00.878Z,11.49
2022-09-27T08:21:00.861Z,11.53
2022-09-27T08:22:00.850Z,11.58
2022-09-27T08:23:00.850Z,11.55
2022-09-27T08:24:00.829Z,11.53
2022-09-27T08:25:00.811Z,11.53
2022-09-27T08:26:00.800Z,11.48
2022-09-27T08:27:00.779Z,11.41
2022-09-27T08:28:00.790Z,11.43
2022-09-27T08:29:00.749Z,11.44
2022-09-27T08:30:00.743Z,11.38
2022-09-27T08:31:00.731Z,11.33
2022-09-27T08:32:00.755Z,11.30
2022-09-27T08:33:00.793Z,11.30
2022-09-27T08:34:00.702Z,11.23
2022-09-27T08:35:00.671Z,11.19
2022-09-27T08:36:00.669Z,11.13
2022-09-27T08:37:00.647Z,11.13
2022-09-27T08:38:00.665Z,11.16
2022-09-27T08:39:00.635Z,11.23
2022-09-27T08:40:00.681Z,11.30
2022-09-27T08:41:00.589Z,11.31
2022-09-27T08:42:00.581Z,11.35
2022-09-27T08:43:00.590Z,11.43
2022-09-27T08:44:00.573Z,11.48
2022-09-27T08:45:03.438Z,11.45
2022-09-27T08:46:00.634Z,11.48
2022-09-27T08:47:00.514Z,11.44
2022-09-27T08:48:00.530Z,11.45
2022-09-27T08:49:00.490Z,11.48
2022-09-27T08:50:00.477Z,11.44
2022-09-27T08:51:00.461Z,11.44
2022-09-27T08:52:00.441Z,11.43
2022-09-27T08:53:00.440Z,11.40
2022-09-27T08:54:00.426Z,11.40
2022-09-27T08:55:00.429Z,11.38
2022-09-27T08:56:00.391Z,11.40
2022-09-27T08:57:00.371Z,11.43
2022-09-27T08:58:00.382Z,11.48
2022-09-27T08:59:00.347Z,11.49
2022-09-27T09:00:00.331Z,11.58
2022-09-27T09:01:00.385Z,11.59
2022-09-27T09:02:00.345Z,11.60
2022-09-27T09:03:00.320Z,11.68
2022-09-27T09:04:00.290Z,11.71
2022-09-27T09:05:00.264Z,11.71
2022-09-27T09:06:00.319Z,11.73
2022-09-27T09:07:00.282Z,11.70
2022-09-27T09:08:00.281Z,11.70
2022-09-27T09:09:00.251Z,11.70
2022-09-27T09:10:00.202Z,11.71
2022-09-27T09:11:00.183Z,11.74
2022-09-27T09:12:00.179Z,11.76
2022-09-27T09:13:00.170Z,11.74
2022-09-27T09:14:00.148Z,11.77
2022-09-27T09:15:00.158Z,11.76
2022-09-27T09:16:00.183Z,11.76
2022-09-27T09:17:00.142Z,11.73
2022-09-27T09:18:00.141Z,11.71
2022-09-27T09:19:00.122Z,11.70
2022-09-27T09:20:00.076Z,11.71
2022-09-27T09:21:00.052Z,11.71
2022-09-27T09:22:00.043Z,11.73
2022-09-27T09:23:00.038Z,11.68
2022-09-27T09:24:00.052Z,11.68
2022-09-27T09:25:00.006Z,11.71
2022-09-27T09:25:59.989Z,11.74
2022-09-27T09:26:59.974Z,11.77
2022-09-27T09:28:02.451Z,11.76
2022-09-27T09:28:59.942Z,11.74
2022-09-27T09:29:59.932Z,11.73
2022-09-27T09:30:59.928Z,11.65
2022-09-27T09:31:59.959Z,11.63
2022-09-27T09:32:59.903Z,11.67
2022-09-27T09:33:59.892Z,11.67
2022-09-27T09:35:00.048Z,11.70
2022-09-27T09:35:59.930Z,11.70
2022-09-27T09:36:59.903Z,11.62
2022-09-27T09:37:59.849Z,11.60
2022-09-27T09:38:59.812Z,11.53
2022-09-27T09:39:59.802Z,11.52
2022-09-27T09:40:59.871Z,11.55
2022-09-27T09:41:59.782Z,11.56
2022-09-27T09:42:59.783Z,11.59
2022-09-27T09:43:59.742Z,11.60
2022-09-27T09:44:59.724Z,11.62
2022-09-27T09:45:59.793Z,11.63
2022-09-27T09:46:59.701Z,11.60
2022-09-27T09:47:59.712Z,11.63
2022-09-27T09:48:59.676Z,11.60
2022-09-27T09:49:59.664Z,11.60
2022-09-27T09:50:59.669Z,11.58
2022-09-27T09:51:59.672Z,11.56
2022-09-27T09:52:59.642Z,11.59
2022-09-27T09:53:59.618Z,11.60
2022-09-27T09:54:59.593Z,11.67
2022-09-27T09:55:59.590Z,11.71
2022-09-27T09:56:59.563Z,11.74
2022-09-27T09:57:59.582Z,11.74
2022-09-27T09:58:59.551Z,11.74
2022-09-27T09:59:59.533Z,11.77
2022-09-27T10:00:59.555Z,11.77
2022-09-27T10:01:59.520Z,11.76
2022-09-27T10:02:59.539Z,11.78
2022-09-27T10:03:59.481Z,11.85
2022-09-27T10:05:01.772Z,11.88
2022-09-27T10:06:00.465Z,11.91
2022-09-27T10:06:59.433Z,11.95
2022-09-27T10:07:59.444Z,11.96
2022-09-27T10:08:59.404Z,12.00
2022-09-27T10:09:59.404Z,12.05
2022-09-27T10:10:59.404Z,12.08
2022-09-27T10:11:59.401Z,12.08
2022-09-27T10:12:59.418Z,12.14
2022-09-27T10:13:59.352Z,12.14
2022-09-27T10:14:59.338Z,12.10
2022-09-27T10:15:59.394Z,12.07
2022-09-27T10:16:59.314Z,12.05
2022-09-27T10:17:59.293Z,12.10
2022-09-27T10:18:59.275Z,12.08
2022-09-27T10:19:59.262Z,12.08
2022-09-27T10:20:59.245Z,12.10
2022-09-27T10:21:59.572Z,12.08
2022-09-27T10:22:59.233Z,12.07
2022-09-27T10:23:59.214Z,12.05
2022-09-27T10:24:59.246Z,12.10
2022-09-27T10:25:59.188Z,12.14
2022-09-27T10:26:59.183Z,12.14
2022-09-27T10:27:59.162Z,12.17
2022-09-27T10:28:59.142Z,12.18
2022-09-27T10:29:59.132Z,12.21
2022-09-27T10:30:59.113Z,12.21
2022-09-27T10:31:59.154Z,12.23
2022-09-27T10:32:59.094Z,12.28
2022-09-27T10:33:59.102Z,12.26
2022-09-27T10:34:59.066Z,12.23
2022-09-27T10:35:59.085Z,12.23
2022-09-27T10:36:59.084Z,12.23
2022-09-27T10:37:59.043Z,12.21
2022-09-27T10:38:59.013Z,12.25
2022-09-27T10:39:58.995Z,12.29
2022-09-27T10:40:59.145Z,12.39
2022-09-27T10:41:58.997Z,12.36
2022-09-27T10:42:58.955Z,12.36
2022-09-27T10:43:58.954Z,12.39
2022-09-27T10:44:58.934Z,12.48
2022-09-27T10:45:58.990Z,12.57
2022-09-27T10:46:58.926Z,12.54
2022-09-27T10:47:58.896Z,12.53
2022-09-27T10:48:58.897Z,12.51
2022-09-27T10:49:58.863Z,12.50
2022-09-27T10:50:59.448Z,12.45
2022-09-27T10:51:58.857Z,12.47
2022-09-27T10:52:58.816Z,12.65
2022-09-27T10:53:58.806Z,12.93
2022-09-27T10:54:58.795Z,13.02
2022-09-27T10:55:58.785Z,13.06
2022-09-27T10:56:58.783Z,13.28
2022-09-27T10:57:58.765Z,13.46
2022-09-27T10:58:58.736Z,13.54
2022-09-27T10:59:58.735Z,13.62
2022-09-27T11:00:58.749Z,13.68
2022-09-27T11:01:58.729Z,13.73
2022-09-27T11:02:58.686Z,13.68
2022-09-27T11:03:58.676Z,13.73
2022-09-27T11:04:58.727Z,13.79
2022-09-27T11:05:58.657Z,13.73
2022-09-27T11:06:58.627Z,13.55
2022-09-27T11:07:58.639Z,13.49
2022-09-27T11:08:58.607Z,13.46
2022-09-27T11:09:58.605Z,13.49
2022-09-27T11:10:59.327Z,13.50
2022-09-27T11:11:58.588Z,13.57
2022-09-27T11:12:58.556Z,13.55
2022-09-27T11:13:58.580Z,13.52
2022-09-27T11:14:58.538Z,13.37
2022-09-27T11:15:58.590Z,13.24
2022-09-27T11:16:58.516Z,13.16
2022-09-27T11:17:58.487Z,13.03
2022-09-27T11:18:58.477Z,12.94
2022-09-27T11:19:58.655Z,12.86
2022-09-27T11:20:58.466Z,12.78
2022-09-27T11:21:58.465Z,12.70
2022-09-27T11:22:58.416Z,12.68
2022-09-27T11:23:58.405Z,12.61
2022-09-27T11:24:58.387Z,12.58
2022-09-27T11:25:58.397Z,12.54
2022-09-27T11:26:58.367Z,12.53
2022-09-27T11:27:58.378Z,12.50
2022-09-27T11:28:58.368Z,12.50
2022-09-27T11:29:58.346Z,12.48
2022-09-27T11:30:58.318Z,12.45
2022-09-27T11:31:58.333Z,12.37
2022-09-27T11:32:58.301Z,12.37
2022-09-27T11:33:58.277Z,12.40
2022-09-27T11:34:58.258Z,12.40
2022-09-27T11:35:58.267Z,12.44
2022-09-27T11:36:58.243Z,12.47
2022-09-27T11:37:58.238Z,12.47
2022-09-27T11:39:02.467Z,12.48
2022-09-27T11:39:58.218Z,12.48
2022-09-27T11:40:58.199Z,12.51
2022-09-27T11:41:58.167Z,12.50
2022-09-27T11:42:58.169Z,12.51
2022-09-27T11:43:58.166Z,12.53
2022-09-27T11:45:19.999Z,12.58
2022-09-27T11:46:19.220Z,12.65
2022-09-27T11:46:59.202Z,12.72
2022-09-27T11:47:58.205Z,12.83
2022-09-27T11:48:58.069Z,12.95
2022-09-27T11:49:58.058Z,13.09
2022-09-27T11:50:58.048Z,13.19
2022-09-27T11:51:58.037Z,13.37
2022-09-27T11:52:58.069Z,13.49
2022-09-27T11:53:58.017Z,13.58
2022-09-27T11:54:57.995Z,13.65
2022-09-27T11:55:58.016Z,13.70
2022-09-27T11:56:57.979Z,13.79
2022-09-27T11:57:57.979Z,13.82
2022-09-27T11:58:57.941Z,13.83
2022-09-27T11:59:57.929Z,13.93
2022-09-27T12:00:57.920Z,13.97
2022-09-27T12:01:57.926Z,14.00
2022-09-27T12:02:57.929Z,14.03
2022-09-27T12:03:57.890Z,14.05
2022-09-27T12:04:57.872Z,14.01
2022-09-27T12:05:59.874Z,13.93
2022-09-27T12:06:57.830Z,13.79
2022-09-27T12:07:57.871Z,13.61
2022-09-27T12:08:57.809Z,13.43
2022-09-27T12:09:57.969Z,13.24
2022-09-27T12:10:57.842Z,13.13
2022-09-27T12:11:57.759Z,13.01
2022-09-27T12:12:57.771Z,12.91
2022-09-27T12:13:57.730Z,12.83
2022-09-27T12:14:59.085Z,12.78
2022-09-27T12:15:57.754Z,12.76
2022-09-27T12:16:57.699Z,12.76
2022-09-27T12:17:57.811Z,12.78
2022-09-27T12:18:57.825Z,12.78
2022-09-27T12:19:57.726Z,12.81
2022-09-27T12:20:57.651Z,12.86
2022-09-27T12:21:57.642Z,12.88
2022-09-27T12:22:59.618Z,12.93
2022-09-27T12:23:57.621Z,12.95
2022-09-27T12:24:57.593Z,13.01
2022-09-27T12:25:57.637Z,13.05
2022-09-27T12:26:57.721Z,13.06
2022-09-27T12:27:58.841Z,13.06
2022-09-27T12:28:57.540Z,13.08
2022-09-27T12:29:57.544Z,13.11
2022-09-27T12:31:17.290Z,13.13
2022-09-27T12:31:58.536Z,13.16
2022-09-27T12:32:57.567Z,13.20
2022-09-27T12:33:57.481Z,13.21
2022-09-27T12:34:57.510Z,13.24
2022-09-27T12:35:57.471Z,13.24
2022-09-27T12:36:57.441Z,13.24
2022-09-27T12:37:57.434Z,13.23
2022-09-27T12:38:57.402Z,13.21
2022-09-27T12:39:57.410Z,13.26
2022-09-27T12:40:57.634Z,13.27
2022-09-27T12:41:57.362Z,13.26
2022-09-27T12:42:57.675Z,13.24
2022-09-27T12:43:57.338Z,13.16
2022-09-27T12:44:57.334Z,13.19
2022-09-27T12:45:57.325Z,13.23
2022-09-27T12:46:57.380Z,13.20
2022-09-27T12:47:57.311Z,13.21
2022-09-27T12:48:57.326Z,13.26
2022-09-27T12:50:01.164Z,13.26
2022-09-27T12:50:57.260Z,13.26
2022-09-27T12:51:57.274Z,13.26
2022-09-27T12:52:57.234Z,13.19
2022-09-27T12:53:57.233Z,13.16